Time;durP1;ratioP1;P1;durP2;ratioP2;P2;SDS_P1;SDS_P2;PMS_P1;PMS_P2;Temp;Humidity;BMP_temperature;BMP_pressure;BME280_temperature;BME280_humidity;BME280_pressure;Samples;Min_cycle;Max_cycle;Signal;HPM_P1;HPM_P2
2023/05/14 00:01:35;;;;;;;73.87;46.27;;;;;11.50;101436.00;;;;9811645;29;20355;-78
2023/05/14 00:06:36;;;;;;;81.53;48.53;;;;;11.50;101431.00;;;;9805623;29;20500;-77
2023/05/14 00:11:37;;;;;;;82.77;49.60;;;;;11.50;101434.00;;;;9795580;29;20219;-76
2023/05/14 00:16:39;;;;;;;77.27;44.83;;;;;11.50;101425.00;;;;9812148;29;21133;-77
2023/05/14 00:21:40;;;;;;;83.10;50.07;;;;;11.50;101434.00;;;;9795932;29;20302;-77
2023/05/14 00:26:42;;;;;;;81.73;50.10;;;;;11.50;101419.00;;;;9810289;29;20230;-77
2023/05/14 00:31:43;;;;;;;89.63;50.50;;;;;11.50;101416.00;;;;9794481;29;20250;-77
2023/05/14 00:36:44;;;;;;;90.93;50.00;;;;;11.50;101416.00;;;;9808718;29;20293;-77
2023/05/14 00:41:46;;;;;;;87.07;47.87;;;;;11.40;101414.00;;;;9779416;29;20250;-77
2023/05/14 00:46:47;;;;;;;90.50;52.70;;;;;11.40;101407.00;;;;9796877;29;20227;-77
2023/05/14 00:51:49;;;;;;;100.73;50.47;;;;;11.50;101410.00;;;;9794367;29;20240;-78
2023/05/14 00:56:51;;;;;;;93.03;52.10;;;;;11.50;101413.00;;;;9793651;29;20250;-77
2023/05/14 01:01:53;;;;;;;92.63;50.97;;;;;11.50;101414.00;;;;9810926;29;20902;-77
2023/05/14 01:07:36;;;;;;;99.73;50.83;;;;;11.50;101402.00;;;;9824856;29;20474;-77
2023/05/14 01:12:59;;;;;;;91.10;48.73;;;;;11.50;101399.00;;;;9784271;29;20745;-77
2023/05/14 01:18:06;;;;;;;101.73;52.30;;;;;11.50;101398.00;;;;9793984;29;20862;-77
2023/05/14 01:23:08;;;;;;;99.67;54.30;;;;;11.50;101395.00;;;;9784048;29;20219;-77
2023/05/14 01:28:17;;;;;;;107.53;55.80;;;;;11.50;101400.00;;;;9799617;29;20232;-77
2023/05/14 01:33:22;;;;;;;111.97;53.63;;;;;11.50;101395.00;;;;9801803;29;20236;-77
2023/05/14 01:38:26;;;;;;;109.13;52.30;;;;;11.50;101389.00;;;;9787769;29;20290;-76
2023/05/14 01:43:28;;;;;;;111.60;54.50;;;;;11.50;101391.00;;;;9783679;29;20310;-78
2023/05/14 01:48:30;;;;;;;115.33;56.57;;;;;11.50;101389.00;;;;9799902;29;20223;-78
2023/05/14 01:53:33;;;;;;;127.17;58.33;;;;;11.50;101395.00;;;;9815876;29;20664;-77
2023/05/14 01:58:35;;;;;;;114.37;53.67;;;;;11.50;101391.00;;;;9814440;29;20735;-76
2023/05/14 02:03:36;;;;;;;107.07;53.03;;;;;11.50;101386.00;;;;9796250;29;20310;-80
2023/05/14 02:08:37;;;;;;;106.97;55.27;;;;;11.50;101385.00;;;;9819675;29;20232;-80
2023/05/14 02:13:39;;;;;;;119.23;56.63;;;;;11.50;101389.00;;;;9809676;29;20238;-79
2023/05/14 02:18:40;;;;;;;109.30;56.80;;;;;11.50;101381.00;;;;9792294;29;20231;-80
2023/05/14 02:23:43;;;;;;;105.80;54.77;;;;;11.50;101383.00;;;;9808495;29;20354;-79
2023/05/14 02:28:44;;;;;;;124.37;56.07;;;;;11.50;101380.00;;;;9806007;29;20223;-78
2023/05/14 02:33:47;;;;;;;121.10;58.20;;;;;11.50;101377.00;;;;9788766;29;20368;-77
2023/05/14 02:38:48;;;;;;;120.90;57.57;;;;;11.50;101377.00;;;;9802488;29;20224;-77
2023/05/14 02:43:51;;;;;;;106.87;53.00;;;;;11.50;101371.00;;;;9801197;29;21394;-78
2023/05/14 02:48:52;;;;;;;113.50;56.47;;;;;11.50;101374.00;;;;9784385;29;20286;-79
2023/05/14 02:53:54;;;;;;;121.27;56.47;;;;;11.50;101377.00;;;;9820035;29;20254;-81
2023/05/14 02:58:55;;;;;;;120.33;57.57;;;;;11.40;101375.00;;;;9826567;29;21325;-81
2023/05/14 03:03:57;;;;;;;117.23;55.30;;;;;11.40;101374.00;;;;9807973;29;20237;-78
2023/05/14 03:08:58;;;;;;;124.30;57.30;;;;;11.40;101367.00;;;;9800921;29;21595;-79
2023/05/14 03:14:00;;;;;;;117.03;56.73;;;;;11.50;101375.00;;;;9802024;29;20235;-79
2023/05/14 03:19:01;;;;;;;123.67;56.93;;;;;11.40;101372.00;;;;9801414;29;20227;-80
2023/05/14 03:24:04;;;;;;;115.07;57.13;;;;;11.40;101375.00;;;;9803392;29;20861;-80
2023/05/14 03:29:05;;;;;;;116.97;56.17;;;;;11.40;101367.00;;;;9815824;29;20223;-79
2023/05/14 03:34:06;;;;;;;121.73;55.57;;;;;11.40;101361.00;;;;9801950;29;20308;-80
2023/05/14 03:39:08;;;;;;;129.63;59.83;;;;;11.40;101365.00;;;;9799358;29;20291;-80
2023/05/14 03:44:09;;;;;;;120.97;57.13;;;;;11.40;101373.00;;;;9798891;29;20569;-79
2023/05/14 03:49:11;;;;;;;119.90;58.77;;;;;11.40;101363.00;;;;9802344;29;20306;-78
2023/05/14 03:54:12;;;;;;;116.50;55.33;;;;;11.40;101362.00;;;;9800571;29;20293;-80
2023/05/14 03:59:13;;;;;;;111.90;54.93;;;;;11.50;101346.00;;;;9797048;29;20275;-80
2023/05/14 04:04:14;;;;;;;133.47;57.13;;;;;11.50;101358.00;;;;9800283;29;20752;-80
2023/05/14 04:09:16;;;;;;;122.07;54.50;;;;;11.50;101362.00;;;;9784836;29;20618;-78
2023/05/14 04:14:17;;;;;;;112.07;52.30;;;;;11.50;101356.00;;;;9801112;29;20528;-80
2023/05/14 04:19:19;;;;;;;114.30;53.27;;;;;11.50;101343.00;;;;9787012;29;20632;-80
2023/05/14 04:24:21;;;;;;;120.23;52.13;;;;;11.60;101348.00;;;;9813840;29;20219;-80
2023/05/14 04:29:22;;;;;;;118.70;57.77;;;;;11.60;101344.00;;;;9801398;29;20458;-80
2023/05/14 04:34:23;;;;;;;117.00;50.53;;;;;11.60;101337.00;;;;9799089;29;20247;-80
2023/05/14 04:39:24;;;;;;;114.27;55.90;;;;;11.60;101335.00;;;;9798543;29;20231;-79
2023/05/14 04:44:26;;;;;;;96.10;47.27;;;;;11.70;101340.00;;;;9785111;29;20231;-80
2023/05/14 04:49:28;;;;;;;118.63;53.10;;;;;11.80;101337.00;;;;9823480;29;20233;-81
2023/05/14 04:54:29;;;;;;;119.50;55.43;;;;;11.80;101348.00;;;;9797267;29;20251;-80
2023/05/14 04:59:31;;;;;;;111.13;50.90;;;;;11.90;101346.00;;;;9796161;29;20835;-79
2023/05/14 05:04:32;;;;;;;107.37;49.50;;;;;12.00;101360.00;;;;9791228;29;20690;-80
2023/05/14 05:09:34;;;;;;;106.50;50.57;;;;;12.00;101350.00;;;;9810462;29;20602;-82
2023/05/14 05:14:35;;;;;;;117.00;52.50;;;;;12.00;101351.00;;;;9804266;29;20774;-78
2023/05/14 05:19:36;;;;;;;106.10;47.97;;;;;12.10;101363.00;;;;9804978;29;20580;-79
2023/05/14 05:24:45;;;;;;;99.13;44.20;;;;;12.30;101346.00;;;;9787368;29;20750;-79
2023/05/14 05:29:47;;;;;;;119.50;55.23;;;;;12.50;101358.00;;;;9803279;29;20698;-79
2023/05/14 05:34:50;;;;;;;123.00;54.33;;;;;12.70;101358.00;;;;9787409;29;20250;-78
2023/05/14 05:39:52;;;;;;;110.90;50.73;;;;;13.00;101369.00;;;;9802444;29;20600;-80
2023/05/14 05:44:54;;;;;;;95.03;45.87;;;;;13.10;101371.00;;;;9824372;29;20314;-80
2023/05/14 05:49:55;;;;;;;112.30;49.37;;;;;13.30;101364.00;;;;9813504;29;20857;-79
2023/05/14 05:54:57;;;;;;;95.53;44.40;;;;;13.30;101372.00;;;;9810934;29;20243;-81
2023/05/14 05:59:58;;;;;;;94.17;47.90;;;;;13.00;101383.00;;;;9793817;29;20718;-77
2023/05/14 06:05:00;;;;;;;95.47;46.47;;;;;12.80;101378.00;;;;9782647;29;20223;-80
2023/05/14 06:10:02;;;;;;;100.80;47.03;;;;;12.70;101379.00;;;;9796402;29;20663;-80
2023/05/14 06:15:03;;;;;;;107.33;48.53;;;;;12.60;101384.00;;;;9804829;29;20248;-77
2023/05/14 06:20:06;;;;;;;100.87;47.97;;;;;12.70;101385.00;;;;9796651;29;20222;-80
2023/05/14 06:25:09;;;;;;;94.60;45.57;;;;;12.90;101388.00;;;;9784623;29;20223;-79
2023/05/14 06:30:11;;;;;;;92.50;45.10;;;;;13.10;101385.00;;;;9809565;29;20266;-82
2023/05/14 06:35:12;;;;;;;97.10;47.23;;;;;13.10;101397.00;;;;9829779;29;20227;-81
2023/05/14 06:40:16;;;;;;;81.37;40.73;;;;;13.00;101398.00;;;;9811614;29;21798;-81
2023/05/14 06:45:18;;;;;;;85.43;43.73;;;;;13.60;101385.00;;;;9812460;29;20648;-81
2023/05/14 06:50:19;;;;;;;88.73;44.53;;;;;14.30;101379.00;;;;9808993;29;20849;-81
2023/05/14 06:55:21;;;;;;;73.70;41.03;;;;;14.40;101392.00;;;;9779269;29;20327;-77
2023/05/14 07:00:22;;;;;;;73.03;41.07;;;;;14.20;101386.00;;;;9823097;29;20258;-80
2023/05/14 07:05:24;;;;;;;65.57;37.43;;;;;14.20;101383.00;;;;9780842;29;20267;-78
2023/05/14 07:10:26;;;;;;;75.30;40.87;;;;;14.00;101388.00;;;;9795530;29;21850;-79
2023/05/14 07:15:28;;;;;;;71.93;39.43;;;;;14.00;101390.00;;;;9809395;29;20250;-80
2023/05/14 07:20:29;;;;;;;71.00;40.27;;;;;13.80;101390.00;;;;9815044;29;21000;-81
2023/05/14 07:25:31;;;;;;;67.60;35.63;;;;;13.60;101395.00;;;;9792839;29;20232;-80
2023/05/14 07:30:32;;;;;;;74.47;39.83;;;;;13.30;101396.00;;;;9784384;29;20377;-82
2023/05/14 07:35:34;;;;;;;66.17;37.87;;;;;13.40;101393.00;;;;9806379;29;20280;-78
2023/05/14 07:40:35;;;;;;;66.00;39.80;;;;;14.10;101392.00;;;;9823158;29;20608;-78
2023/05/14 07:45:40;;;;;;;66.47;39.77;;;;;14.30;101392.00;;;;9793424;29;20223;-79
2023/05/14 07:50:41;;;;;;;58.27;34.37;;;;;14.20;101383.00;;;;9794819;29;20246;-80
2023/05/14 07:55:44;;;;;;;60.80;39.43;;;;;14.30;101386.00;;;;9774712;29;21158;-79
2023/05/14 08:00:45;;;;;;;59.63;37.57;;;;;13.90;101385.00;;;;9797310;29;20254;-78
2023/05/14 08:05:47;;;;;;;64.97;39.97;;;;;13.90;101384.00;;;;9777253;29;20223;-78
2023/05/14 08:10:49;;;;;;;59.37;36.23;;;;;14.80;101379.00;;;;9789969;29;20306;-79
2023/05/14 08:15:51;;;;;;;66.40;41.23;;;;;14.70;101396.00;;;;9779205;29;20278;-80
2023/05/14 08:20:52;;;;;;;55.23;35.23;;;;;15.10;101381.00;;;;9781469;29;20521;-78
2023/05/14 08:25:54;;;;;;;54.63;35.63;;;;;14.60;101390.00;;;;9796109;29;20227;-80
2023/05/14 08:30:55;;;;;;;52.67;35.23;;;;;15.10;101384.00;;;;9809030;29;20814;-81
2023/05/14 08:35:59;;;;;;;58.33;40.50;;;;;15.90;101378.00;;;;9826451;29;20332;-79
2023/05/14 08:41:00;;;;;;;56.20;39.10;;;;;16.00;101381.00;;;;9807439;29;20357;-80
2023/05/14 08:46:04;;;;;;;53.93;36.63;;;;;16.20;101377.00;;;;9798712;29;20223;-78
2023/05/14 08:51:06;;;;;;;49.27;35.67;;;;;16.40;101364.00;;;;9790361;29;21504;-78
2023/05/14 08:56:08;;;;;;;46.87;34.57;;;;;15.70;101376.00;;;;9806385;29;20250;-79
2023/05/14 09:01:10;;;;;;;48.95;31.60;;;;;15.30;101374.00;;;;9801745;29;20921;-80
2023/05/14 09:06:13;;;;;;;38.93;30.77;;;;;16.50;101351.00;;;;9816809;29;21413;-82
2023/05/14 09:11:14;;;;;;;45.38;36.53;;;;;18.10;101337.00;;;;9789095;29;20270;-78
2023/05/14 09:16:17;;;;;;;44.72;31.60;;;;;18.80;101331.00;;;;9800350;29;20231;-79
2023/05/14 09:21:19;;;;;;;36.63;29.35;;;;;18.70;101319.00;;;;9794860;29;20224;-79
2023/05/14 09:26:27;;;;;;;39.15;31.25;;;;;20.70;101317.00;;;;9812951;29;20739;-80
2023/05/14 09:31:30;;;;;;;37.40;30.38;;;;;20.60;101314.00;;;;9782071;29;20298;-79
2023/05/14 09:36:33;;;;;;;38.53;31.95;;;;;21.20;101302.00;;;;9787563;29;20279;-79
2023/05/14 09:41:35;;;;;;;33.53;28.60;;;;;20.90;101307.00;;;;9794061;29;20391;-79
2023/05/14 09:46:36;;;;;;;42.47;34.47;;;;;20.00;101306.00;;;;9810833;29;20216;-78
2023/05/14 09:51:38;;;;;;;40.45;33.35;;;;;20.10;101299.00;;;;9782694;29;20778;-77
2023/05/14 09:56:39;;;;;;;38.97;32.97;;;;;21.00;101295.00;;;;9789299;29;20750;-81
2023/05/14 10:01:42;;;;;;;44.00;31.67;;;;;20.30;101306.00;;;;9808010;29;20231;-80
2023/05/14 10:06:47;;;;;;;36.40;30.05;;;;;21.00;101287.00;;;;9816483;29;20988;-78
2023/05/14 10:11:52;;;;;;;34.83;28.40;;;;;22.40;101285.00;;;;9787948;29;21055;-79
2023/05/14 10:16:56;;;;;;;28.95;24.38;;;;;22.80;101289.00;;;;9802429;29;20389;-81
2023/05/14 10:22:07;;;;;;;27.88;24.92;;;;;22.00;101288.00;;;;9772412;29;20251;-81
2023/05/14 10:27:09;;;;;;;34.22;26.80;;;;;20.80;101291.00;;;;9817419;29;20220;-80
2023/05/14 10:32:13;;;;;;;30.38;25.92;;;;;22.40;101268.00;;;;9819469;29;20224;-80
2023/05/14 10:37:18;;;;;;;28.52;24.55;;;;;23.10;101272.00;;;;9819282;29;20306;-77
2023/05/14 10:42:27;;;;;;;30.65;26.92;;;;;21.10;101273.00;;;;9801497;29;20227;-82
2023/05/14 10:47:28;;;;;;;30.02;26.58;;;;;21.70;101269.00;;;;9799681;29;20772;-77
2023/05/14 10:52:30;;;;;;;30.77;27.48;;;;;22.90;101262.00;;;;9783303;29;20289;-80
2023/05/14 10:57:36;;;;;;;34.45;28.38;;;;;23.20;101257.00;;;;9784863;29;20313;-81
2023/05/14 11:02:43;;;;;;;34.10;28.55;;;;;23.90;101252.00;;;;9813671;29;20351;-82
2023/05/14 11:07:48;;;;;;;30.98;24.48;;;;;24.10;101255.00;;;;9788279;29;20357;-80
2023/05/14 11:12:51;;;;;;;28.00;25.02;;;;;24.40;101251.00;;;;9824370;29;20223;-78
2023/05/14 11:17:53;;;;;;;26.75;23.88;;;;;24.20;101248.00;;;;9826460;29;20224;-80
2023/05/14 11:22:54;;;;;;;30.05;21.40;;;;;24.20;101249.00;;;;9818172;29;21367;-80
2023/05/14 11:27:57;;;;;;;26.38;23.10;;;;;24.70;101244.00;;;;9804876;29;20274;-79
2023/05/14 11:32:59;;;;;;;24.85;22.20;;;;;24.80;101228.00;;;;9796115;29;20275;-79
2023/05/14 11:38:02;;;;;;;27.85;24.95;;;;;24.40;101230.00;;;;9809138;29;20850;-79
2023/05/14 11:43:04;;;;;;;26.80;23.95;;;;;24.90;101226.00;;;;9814544;29;20284;-80
2023/05/14 11:48:14;;;;;;;29.40;23.80;;;;;25.10;101220.00;;;;9819118;29;20342;-78
2023/05/14 11:53:28;;;;;;;29.63;25.33;;;;;25.00;101223.00;;;;9804470;29;20615;-78
2023/05/14 11:58:33;;;;;;;28.15;24.80;;;;;25.80;101217.00;;;;9787051;29;20591;-81
2023/05/14 12:03:34;;;;;;;27.70;23.88;;;;;26.50;101213.00;;;;9806996;29;20671;-81
2023/05/14 12:08:36;;;;;;;28.20;23.38;;;;;26.70;101214.00;;;;9806524;29;20695;-80
2023/05/14 12:13:38;;;;;;;25.10;22.58;;;;;26.80;101214.00;;;;9809786;29;20254;-79
2023/05/14 12:18:39;;;;;;;25.13;22.00;;;;;26.90;101215.00;;;;9816688;29;20910;-79
2023/05/14 12:23:41;;;;;;;24.67;22.17;;;;;26.00;101203.00;;;;9801133;29;20293;-81
2023/05/14 12:28:46;;;;;;;29.70;24.20;;;;;24.80;101198.00;;;;9781268;29;20828;-78
2023/05/14 12:33:47;;;;;;;26.38;23.05;;;;;25.20;101199.00;;;;9808631;29;20270;-80
2023/05/14 12:38:50;;;;;;;23.98;21.35;;;;;26.40;101183.00;;;;9810938;29;20224;-82
2023/05/14 12:43:51;;;;;;;25.67;22.98;;;;;25.90;101193.00;;;;9791057;29;20254;-80
2023/05/14 12:48:53;;;;;;;27.73;24.42;;;;;26.50;101186.00;;;;9807152;29;20231;-80
2023/05/14 12:53:54;;;;;;;24.10;21.02;;;;;26.90;101180.00;;;;9813208;29;20290;-79
2023/05/14 12:58:56;;;;;;;27.20;24.05;;;;;27.00;101174.00;;;;9799294;29;20855;-79
2023/05/14 13:03:58;;;;;;;24.95;21.65;;;;;26.40;101171.00;;;;9813731;29;20219;-80
2023/05/14 13:09:01;;;;;;;27.00;22.13;;;;;26.20;101167.00;;;;9784704;29;20296;-80
2023/05/14 13:14:02;;;;;;;24.65;20.90;;;;;26.50;101160.00;;;;9812907;29;20231;-83
2023/05/14 13:19:04;;;;;;;22.48;20.15;;;;;26.80;101156.00;;;;9803769;29;20307;-80
2023/05/14 13:24:05;;;;;;;21.48;19.20;;;;;27.00;101149.00;;;;9809610;29;20719;-82
2023/05/14 13:29:07;;;;;;;23.33;20.88;;;;;26.70;101152.00;;;;9790792;29;20254;-79
2023/05/14 13:34:09;;;;;;;20.73;18.50;;;;;27.10;101148.00;;;;9805883;29;20232;-79
2023/05/14 13:39:13;;;;;;;22.70;19.92;;;;;27.00;101143.00;;;;9788889;29;21195;-80
2023/05/14 13:44:16;;;;;;;20.40;18.17;;;;;26.40;101142.00;;;;9807870;29;20451;-81
2023/05/14 13:49:17;;;;;;;20.35;18.15;;;;;26.10;101134.00;;;;9805781;29;22015;-80
2023/05/14 13:54:19;;;;;;;20.80;18.15;;;;;26.60;101122.00;;;;9791338;29;20250;-79
2023/05/14 13:59:20;;;;;;;18.65;15.85;;;;;26.60;101119.00;;;;9780192;29;20226;-81
2023/05/14 14:04:24;;;;;;;17.30;15.48;;;;;26.40;101117.00;;;;9810923;29;20837;-81
2023/05/14 14:09:25;;;;;;;19.42;16.58;;;;;26.20;101116.00;;;;9820032;29;20227;-82
2023/05/14 14:14:27;;;;;;;16.27;14.60;;;;;26.10;101106.00;;;;9807577;29;20239;-82
2023/05/14 14:19:28;;;;;;;19.85;14.90;;;;;26.00;101102.00;;;;9812915;29;20234;-80
2023/05/14 14:24:30;;;;;;;17.33;13.95;;;;;26.00;101103.00;;;;9811654;29;20310;-80
2023/05/14 14:29:31;;;;;;;18.30;15.48;;;;;25.70;101085.00;;;;9814420;29;20256;-80
2023/05/14 14:34:33;;;;;;;19.23;14.27;;;;;26.10;101073.00;;;;9797150;29;20792;-80
2023/05/14 14:39:34;;;;;;;17.35;13.07;;;;;26.10;101076.00;;;;9819803;29;20223;-80
2023/05/14 14:44:35;;;;;;;14.25;12.73;;;;;25.70;101076.00;;;;9764482;29;20235;-79
2023/05/14 14:49:36;;;;;;;16.33;14.40;;;;;25.40;101058.00;;;;9817302;29;20320;-80
2023/05/14 14:54:38;;;;;;;19.70;13.55;;;;;25.70;101056.00;;;;9804335;29;20243;-77
2023/05/14 14:59:40;;;;;;;14.77;13.20;;;;;26.00;101062.00;;;;9814631;29;20324;-82
2023/05/14 15:04:41;;;;;;;16.50;13.18;;;;;25.20;101062.00;;;;9813134;29;20250;-79
2023/05/14 15:09:42;;;;;;;16.27;12.65;;;;;24.80;101054.00;;;;9795739;29;20226;-79
2023/05/14 15:14:44;;;;;;;14.55;11.88;;;;;24.70;101065.00;;;;9795593;29;20946;-79
2023/05/14 15:19:45;;;;;;;17.40;12.45;;;;;23.60;101064.00;;;;9815782;29;20285;-83
2023/05/14 15:24:46;;;;;;;20.60;13.57;;;;;23.20;101064.00;;;;9809819;29;20236;-83
2023/05/14 15:29:48;;;;;;;16.05;11.90;;;;;23.70;101059.00;;;;9794634;29;21640;-79
2023/05/14 15:34:49;;;;;;;13.40;11.27;;;;;24.90;101070.00;;;;9808454;29;20251;-80
2023/05/14 15:39:51;;;;;;;13.25;8.90;;;;;24.90;101067.00;;;;9801606;29;20254;-81
2023/05/14 15:44:52;;;;;;;13.35;10.90;;;;;23.30;101054.00;;;;9802939;29;20593;-83
2023/05/14 15:49:53;;;;;;;17.83;12.00;;;;;22.10;101058.00;;;;9818976;29;20392;-83
2023/05/14 15:54:56;;;;;;;18.80;11.85;;;;;21.30;101068.00;;;;9825076;29;20753;-82
2023/05/14 15:59:57;;;;;;;18.67;12.00;;;;;21.00;101064.00;;;;9809254;29;20220;-82
2023/05/14 16:04:58;;;;;;;18.98;13.35;;;;;20.90;101072.00;;;;9797865;29;20223;-79
2023/05/14 16:10:00;;;;;;;18.15;13.43;;;;;20.70;101078.00;;;;9807405;29;20224;-83
2023/05/14 16:15:02;;;;;;;16.58;11.75;;;;;20.60;101064.00;;;;9810585;29;20812;-84
2023/05/14 16:20:05;;;;;;;17.20;12.25;;;;;20.50;101078.00;;;;9801699;29;20224;-81
2023/05/14 16:25:07;;;;;;;21.10;12.15;;;;;20.40;101082.00;;;;9791684;29;20220;-79
2023/05/14 16:30:09;;;;;;;14.95;11.38;;;;;20.30;101083.00;;;;9818915;29;20983;-81
2023/05/14 16:35:10;;;;;;;18.80;12.05;;;;;20.10;101085.00;;;;9798840;29;20266;-80
2023/05/14 16:40:12;;;;;;;19.17;11.82;;;;;19.60;101090.00;;;;9815606;29;20467;-79
2023/05/14 16:45:13;;;;;;;12.20;10.23;;;;;19.30;101095.00;;;;9814054;29;20572;-79
2023/05/14 16:50:15;;;;;;;13.65;10.73;;;;;19.20;101089.00;;;;9816122;29;20365;-81
2023/05/14 16:55:18;;;;;;;16.95;10.85;;;;;19.20;101102.00;;;;9820976;29;20277;-81
2023/05/14 17:00:20;;;;;;;16.50;9.77;;;;;18.90;101100.00;;;;9804883;29;20695;-81
2023/05/14 17:05:22;;;;;;;14.68;10.35;;;;;18.80;101106.00;;;;9789612;29;20227;-81
2023/05/14 17:10:24;;;;;;;15.80;10.80;;;;;18.70;101095.00;;;;9817670;29;20219;-80
2023/05/14 17:15:25;;;;;;;16.10;8.55;;;;;18.50;101110.00;;;;9801268;29;20561;-78
2023/05/14 17:20:27;;;;;;;12.18;9.45;;;;;18.10;101110.00;;;;9780092;29;20602;-80
2023/05/14 17:25:28;;;;;;;13.82;9.30;;;;;17.80;101114.00;;;;9804665;29;20242;-80
2023/05/14 17:30:30;;;;;;;15.73;9.50;;;;;17.50;101116.00;;;;9782275;29;20499;-79
2023/05/14 17:35:34;;;;;;;14.57;10.25;;;;;17.30;101126.00;;;;9779388;29;20610;-81
2023/05/14 17:40:36;;;;;;;13.50;10.75;;;;;17.10;101110.00;;;;9792408;29;20591;-81
2023/05/14 17:45:38;;;;;;;14.43;10.13;;;;;16.80;101118.00;;;;9778827;29;20372;-81
2023/05/14 17:50:54;;;;;;;14.15;10.38;;;;;16.70;101126.00;;;;9781722;29;21406;-81
2023/05/14 17:55:56;;;;;;;16.13;10.82;;;;;16.40;101131.00;;;;9769795;29;20250;-82
2023/05/14 18:00:58;;;;;;;16.75;9.75;;;;;16.20;101131.00;;;;9785014;29;20923;-80
2023/05/14 18:05:59;;;;;;;13.10;10.05;;;;;16.00;101126.00;;;;9785150;29;20730;-81
2023/05/14 18:11:00;;;;;;;13.18;10.85;;;;;15.90;101134.00;;;;9779981;29;20249;-81
2023/05/14 18:16:02;;;;;;;12.75;10.30;;;;;15.80;101149.00;;;;9780811;29;20239;-80
2023/05/14 18:21:04;;;;;;;12.85;10.25;;;;;15.70;101151.00;;;;9796756;29;20374;-80
2023/05/14 18:26:05;;;;;;;17.27;10.68;;;;;15.50;101142.00;;;;9808835;29;20230;-80
2023/05/14 18:31:06;;;;;;;14.25;10.40;;;;;15.30;101148.00;;;;9795217;29;20223;-81
2023/05/14 18:36:08;;;;;;;12.95;11.27;;;;;15.20;101160.00;;;;9808648;29;20252;-81
2023/05/14 18:41:09;;;;;;;15.50;10.50;;;;;15.00;101153.00;;;;9817516;29;20330;-79
2023/05/14 18:46:11;;;;;;;14.82;10.23;;;;;14.80;101166.00;;;;9786500;29;20235;-80
2023/05/14 18:51:12;;;;;;;16.50;10.70;;;;;14.60;101164.00;;;;9817961;29;20886;-79
2023/05/14 18:56:14;;;;;;;16.20;10.97;;;;;14.50;101162.00;;;;9796178;29;21036;-80
2023/05/14 19:01:15;;;;;;;17.03;10.97;;;;;14.30;101160.00;;;;9812165;29;20235;-80
2023/05/14 19:06:16;;;;;;;15.40;10.93;;;;;14.10;101168.00;;;;9796959;29;20231;-81
2023/05/14 19:11:18;;;;;;;17.20;11.47;;;;;13.90;101172.00;;;;9814707;29;21069;-80
2023/05/14 19:16:20;;;;;;;16.23;11.97;;;;;13.80;101179.00;;;;9766357;29;20238;-82
2023/05/14 19:21:21;;;;;;;13.40;11.87;;;;;13.60;101187.00;;;;9819514;29;20231;-78
2023/05/14 19:26:22;;;;;;;18.43;13.07;;;;;13.50;101188.00;;;;9795077;29;20231;-79
2023/05/14 19:31:25;;;;;;;18.73;13.40;;;;;13.40;101199.00;;;;9781252;29;20250;-82
2023/05/14 19:36:27;;;;;;;16.30;12.43;;;;;13.20;101202.00;;;;9822136;29;20412;-80
2023/05/14 19:41:29;;;;;;;16.53;13.10;;;;;13.10;101209.00;;;;9802124;29;20220;-82
2023/05/14 19:46:30;;;;;;;19.63;12.33;;;;;13.00;101208.00;;;;9790132;29;20224;-82
2023/05/14 19:51:32;;;;;;;15.87;12.43;;;;;12.90;101215.00;;;;9789025;29;20223;-80
2023/05/14 19:56:33;;;;;;;16.80;13.10;;;;;12.80;101215.00;;;;9805569;29;20243;-80
2023/05/14 20:01:34;;;;;;;18.20;14.10;;;;;12.70;101219.00;;;;9786454;29;20323;-78
2023/05/14 20:06:37;;;;;;;23.20;14.70;;;;;12.60;101222.00;;;;9793243;29;20231;-79
2023/05/14 20:11:38;;;;;;;19.63;15.77;;;;;12.50;101215.00;;;;9777368;29;20737;-81
2023/05/14 20:16:40;;;;;;;25.17;15.73;;;;;12.50;101224.00;;;;9780966;29;21706;-82
2023/05/14 20:21:41;;;;;;;23.47;15.23;;;;;12.40;101217.00;;;;9784900;29;21064;-82
2023/05/14 20:26:43;;;;;;;23.37;16.73;;;;;12.30;101225.00;;;;9793170;29;20347;-79
2023/05/14 20:31:44;;;;;;;24.63;16.63;;;;;12.30;101216.00;;;;9778914;29;20646;-80
2023/05/14 20:36:46;;;;;;;20.57;16.53;;;;;12.20;101226.00;;;;9806502;29;20239;-80
2023/05/14 20:41:47;;;;;;;28.83;17.50;;;;;12.20;101226.00;;;;9807362;29;20807;-81
2023/05/14 20:46:48;;;;;;;28.73;17.00;;;;;12.10;101226.00;;;;9795017;29;20231;-80
2023/05/14 20:51:50;;;;;;;22.03;17.23;;;;;12.00;101217.00;;;;9806323;29;20243;-83
2023/05/14 20:56:52;;;;;;;22.67;16.63;;;;;11.90;101206.00;;;;9782395;29;20322;-80
2023/05/14 21:01:53;;;;;;;25.10;17.37;;;;;11.80;101215.00;;;;9774517;29;20985;-82
2023/05/14 21:06:54;;;;;;;26.37;18.07;;;;;11.80;101216.00;;;;9779347;29;20346;-80
2023/05/14 21:11:56;;;;;;;27.50;19.60;;;;;11.70;101209.00;;;;9790841;29;20911;-80
2023/05/14 21:16:57;;;;;;;28.33;19.73;;;;;11.60;101208.00;;;;9787670;29;20249;-79
2023/05/14 21:21:58;;;;;;;27.87;19.57;;;;;11.50;101205.00;;;;9756616;29;20735;-79
2023/05/14 21:27:00;;;;;;;33.83;23.17;;;;;11.50;101206.00;;;;9788117;29;21017;-80
2023/05/14 21:32:01;;;;;;;33.40;22.70;;;;;11.40;101196.00;;;;9791379;29;20579;-80
2023/05/14 21:37:03;;;;;;;39.30;27.03;;;;;11.30;101201.00;;;;9788944;29;20378;-79
2023/05/14 21:42:05;;;;;;;35.83;25.43;;;;;11.20;101195.00;;;;9792135;29;20254;-77
2023/05/14 21:47:06;;;;;;;34.90;24.07;;;;;11.20;101198.00;;;;9814958;29;20227;-80
2023/05/14 21:52:08;;;;;;;37.50;26.27;;;;;11.00;101195.00;;;;9798270;29;20707;-79
2023/05/14 21:57:09;;;;;;;38.67;27.20;;;;;10.90;101200.00;;;;9813057;29;20243;-79
2023/05/14 22:02:10;;;;;;;42.47;27.43;;;;;10.80;101197.00;;;;9791822;29;20232;-79
2023/05/14 22:07:12;;;;;;;38.23;25.10;;;;;10.80;101191.00;;;;9804483;29;20220;-80
2023/05/14 22:12:13;;;;;;;44.20;27.00;;;;;10.70;101186.00;;;;9788120;29;20654;-81
2023/05/14 22:17:14;;;;;;;36.77;24.77;;;;;10.60;101171.00;;;;9815697;29;20298;-79
2023/05/14 22:22:16;;;;;;;40.87;26.40;;;;;10.60;101185.00;;;;9788071;29;20265;-78
2023/05/14 22:27:17;;;;;;;38.20;25.80;;;;;10.50;101173.00;;;;9788794;29;20272;-80
2023/05/14 22:32:20;;;;;;;37.67;25.60;;;;;10.40;101169.00;;;;9806059;29;20230;-81
2023/05/14 22:37:21;;;;;;;40.97;26.70;;;;;10.40;101172.00;;;;9820970;29;20346;-81
2023/05/14 22:42:22;;;;;;;35.80;26.60;;;;;10.30;101169.00;;;;9788607;29;20239;-80
2023/05/14 22:47:24;;;;;;;41.40;25.50;;;;;10.20;101160.00;;;;9780035;29;20380;-78
2023/05/14 22:52:26;;;;;;;40.60;26.80;;;;;10.20;101164.00;;;;9789218;29;20239;-77
2023/05/14 22:57:27;;;;;;;44.87;28.50;;;;;10.10;101145.00;;;;9803011;29;20247;-80
2023/05/14 23:02:29;;;;;;;46.70;29.53;;;;;10.10;101148.00;;;;9770091;29;21794;-79
2023/05/14 23:07:30;;;;;;;51.23;34.00;;;;;10.10;101136.00;;;;9802457;29;20291;-81
2023/05/14 23:12:32;;;;;;;58.60;34.10;;;;;10.10;101126.00;;;;9808186;29;20437;-81
2023/05/14 23:17:33;;;;;;;55.00;34.30;;;;;10.00;101129.00;;;;9801666;29;20864;-80
2023/05/14 23:22:34;;;;;;;49.67;33.67;;;;;9.90;101124.00;;;;9801538;29;20231;-80
2023/05/14 23:27:36;;;;;;;60.03;37.10;;;;;9.90;101128.00;;;;9801476;29;20211;-79
2023/05/14 23:32:37;;;;;;;56.37;36.47;;;;;9.80;101125.00;;;;9806183;29;20227;-81
2023/05/14 23:37:45;;;;;;;55.67;36.23;;;;;9.80;101124.00;;;;9799738;29;21753;-79
2023/05/14 23:42:46;;;;;;;68.23;41.50;;;;;9.70;101110.00;;;;9794300;29;20235;-80
2023/05/14 23:47:48;;;;;;;77.83;42.43;;;;;9.70;101116.00;;;;9794197;29;20239;-80
2023/05/14 23:52:54;;;;;;;84.20;44.50;;;;;9.70;101099.00;;;;9800967;29;20915;-80
2023/05/14 23:57:55;;;;;;;84.80;46.00;;;;;9.60;101088.00;;;;9801632;29;20235;-79
